メインページ
METAR-TAF:

METAR-TAF

空港 :

ミラノ・リナーテ空港

ミラノ, イタリア

緯度: 45-26N, 経度: 009-17E, 海抜: 107m

現時点の気象観測

当レポートは25分前の17:20(UTC)に作成
東/南東の風 6kt
気温 23°C
湿度 44%
気圧 1024 hPa
視程10km以上
1,500メートル以下は雲なし、積乱雲なし

METAR: LIML 261720Z 11006KT CAVOK 23/10 Q1024 NOSIG

時間: 19:45 (17:45 UTC)

予報

当レポートは45分前の17:00(UTC)に作成
予報は26日の 18時(UTC)から 27日の 18時(UTC)まで有効
の風 10kt
視程10km以上
1,500メートル以下は雲なし、積乱雲なし
26日の 18時(UTC)から 26日の 20時(UTC)まで徐々に
変向風 5kt

TAF: LIML 261700Z 2618/2718 10010KT CAVOK BECMG 2618/2620 VRB05KT

4,000以上の空港の気象観測と天気予報(METAR報とTAF報)

利用可能な観測所は地図上に黄色い丸と赤い丸で示す。

丸の上にカーソルを重ねると観測所名を参照できる。

次にクリックすると気象観測と天気予報を参照できる。

マップの切り替え:黒色「×」印の緑ボタンをクリックして拡大、「-」印の緑ボタンをクリックして縮小、緑色の三角印をクリックして隣りの地図に切り替え


METAR-TAF: